Weather at Flying W Airpark II Airport

Public forecast

Using degrees Fahrenheit for public forecast. Weather courtesy of forecast.io.

Closest aviation weather report (METAR) to Flying W Airpark II Airport

Report is more than 6 hours old.

Closest report is Fort Smith Regional Airport, 15.9 nm (29.5 km) W.

2022/11/14 14:53 (retrieved 2 years ago)

KFSM 141453Z 08010KT 10SM OVC100 02/M02 A3021 RMK AO2 SLP232 T00221022 50001

Closest aviation forecast (TAF) to Flying W Airpark II Airport

Forecast is more than 12 hours old.

Closest forecast is Fort Smith Regional Airport, 15.9 nm (29.5 km) W.

2023/02/22 18:22 (retrieved 1 year ago)

TAF KFSM 221720Z 2218/2318 23012G18KT 6SM -RA BKN080 FM222000 22014G22KT P6SM SCT250 FM230100 18008KT P6SM SKC FM231300 31012KT P6SM SKC